Fire Weather Observation
Issued by NWS Grand Junction, CO

Home | Current Version | Previous Version | Graphics & Text | Print | Product List | Glossary On
Versions: 1 2 3 4 5 6 7 8 9 10 11 12 13 14 15 16 17 18 19 20 21 22 23 24 25 26 27 28 29 30 31 32 33 34 35
000
SHUS65 KGJT 302013
FWOGJT

DAILY FIRE WEATHER OBSERVATION
NATIONAL WEATHER SERVICE GRAND JUNCTION CO
212 PM MDT SAT APR 30 2016

STATE OF THE WEATHER (W)               3
DRY BULB TEMPERATURE                   52   DEGREES FAHRENHEIT
RELATIVE HUMIDITY (RH)                 44   PERCENT
LIGHTNING ACTIVITY LEVEL
  (LAL - MIDNIGHT TO 2 PM)             1
WIND DIRECTION                         360  DEGREES (C IF CALM)
WIND SPEED                             6    MPH
MAX TEMP (2 PM - 2 PM)                 58   DEGREES FAHRENHEIT
MIN TEMP (2 PM - 2 PM)                 39   DEGREES FAHRENHEIT
MAX RH (2 PM - 2 PM)                   100  PERCENT
MIN RH (2 PM - 2 PM)                   42   PERCENT
PCPN DURATION                          1.9  HOURS
PCPN AMT (2 PM - 2 PM)                 0.07 INCHES
LAL (2 PM - 2 PM)                      2

$$

METAR KGJT 301953Z 02005KT 10SM BKN055 OVC070 11/M01 A2989 RMK
      AO2 SLP097 T01111006



USA.gov is the U.S. government's official web portal to all federal, state and local government web resources and services.